Time;durP1;ratioP1;P1;durP2;ratioP2;P2;SDS_P1;SDS_P2;PMS_P1;PMS_P2;Temp;Humidity;BMP_temperature;BMP_pressure;BME280_temperature;BME280_humidity;BME280_pressure;Samples;Min_cycle;Max_cycle;Signal;HPM_P1;HPM_P2
2023/12/30 00:01:21;;;;;;;;;141.75;118.00;;;;;1.36;100.00;99665.16;6277829;20;3706622;-54
2023/12/30 00:03:52;;;;;;;;;138.50;113.00;;;;;1.24;100.00;99653.13;6276763;20;4491946;-53
2023/12/30 00:06:23;;;;;;;;;129.75;102.00;;;;;0.81;100.00;99657.59;6278574;20;4478402;-51
2023/12/30 00:08:52;;;;;;;;;125.67;97.33;;;;;1.18;100.00;99651.47;6279229;20;3695099;-50
2023/12/30 00:11:22;;;;;;;;;124.00;101.67;;;;;0.69;100.00;99646.47;6279778;20;3706547;-51
2023/12/30 00:13:53;;;;;;;;;120.00;104.75;;;;;0.38;100.00;99663.81;6276072;20;3703554;-54
2023/12/30 00:16:22;;;;;;;;;105.33;87.33;;;;;0.49;100.00;99655.66;6310808;20;3664291;-54
2023/12/30 00:18:52;;;;;;;;;106.33;77.67;;;;;0.75;100.00;99652.47;6275182;20;3699285;-50
2023/12/30 00:21:23;;;;;;;;;116.67;90.33;;;;;0.85;100.00;99650.50;6278082;20;3689871;-53
2023/12/30 00:23:53;;;;;;;;;101.33;81.67;;;;;0.68;100.00;99649.97;6275563;20;3663818;-52
2023/12/30 00:26:26;;;;;;;;;116.33;96.67;;;;;0.87;100.00;99646.03;6309950;20;3689899;-51
2023/12/30 00:28:56;;;;;;;;;110.67;97.33;;;;;0.85;100.00;99650.50;6279095;20;3676031;-51
2023/12/30 00:31:30;;;;;;;;;115.00;98.33;;;;;0.96;100.00;99651.09;6277992;20;3686743;-53
2023/12/30 00:34:02;;;;;;;;;128.67;108.33;;;;;0.94;100.00;99644.13;6274610;20;3698240;-54
2023/12/30 00:36:32;;;;;;;;;119.00;91.33;;;;;0.64;100.00;99638.63;6278604;20;3698196;-53
2023/12/30 00:39:02;;;;;;;;;120.67;99.67;;;;;0.37;100.00;99627.75;6278398;20;3701412;-49
2023/12/30 00:41:32;;;;;;;;;104.33;82.00;;;;;0.23;100.00;99616.59;6275812;20;3681613;-49
2023/12/30 00:44:01;;;;;;;;;105.33;79.67;;;;;0.59;100.00;99612.31;6273907;20;3677316;-54
2023/12/30 00:46:31;;;;;;;;;106.33;83.67;;;;;0.94;100.00;99604.47;6277631;20;3691989;-50
2023/12/30 00:49:01;;;;;;;;;93.33;73.00;;;;;1.26;100.00;99633.66;6276859;20;3646293;-53
2023/12/30 00:51:31;;;;;;;;;105.00;80.33;;;;;1.03;100.00;99630.69;6310055;20;3686713;-51
2023/12/30 00:54:01;;;;;;;;;103.00;75.00;;;;;1.10;100.00;99641.06;6274647;20;3677328;-54
2023/12/30 00:56:30;;;;;;;;;101.67;77.33;;;;;1.07;100.00;99640.28;6278337;20;3682578;-52
2023/12/30 00:59:00;;;;;;;;;102.67;72.33;;;;;1.30;100.00;99645.88;6308571;20;3667968;-53
2023/12/30 01:01:30;;;;;;;;;102.00;74.00;;;;;1.41;100.00;99637.69;6276841;20;3673201;-53
2023/12/30 01:04:00;;;;;;;;;101.00;80.67;;;;;1.20;100.00;99639.06;6277235;20;3681493;-54
2023/12/30 01:06:29;;;;;;;;;97.33;75.67;;;;;1.66;100.00;99642.34;6275539;20;3653395;-52
2023/12/30 01:09:00;;;;;;;;;100.00;78.67;;;;;1.52;100.00;99630.31;6310183;20;3675224;-55
2023/12/30 01:11:30;;;;;;;;;102.00;79.33;;;;;1.10;100.00;99633.13;6277553;20;3689898;-53
2023/12/30 01:14:00;;;;;;;;;100.67;77.33;;;;;0.60;100.00;99623.72;6278293;20;3679473;-52
2023/12/30 01:16:30;;;;;;;;;98.33;75.33;;;;;0.41;100.00;99612.69;6274384;20;3670171;-54
2023/12/30 01:18:59;;;;;;;;;99.50;73.00;;;;;1.09;100.00;99625.25;6307637;20;3551307;-54
2023/12/30 01:21:29;;;;;;;;;100.00;74.33;;;;;0.54;100.00;99616.81;6309091;20;3673262;-52
2023/12/30 01:23:59;;;;;;;;;102.33;77.00;;;;;1.25;100.00;99620.47;6274126;20;3680424;-52
2023/12/30 01:26:29;;;;;;;;;120.33;99.67;;;;;0.62;100.00;99614.88;6275494;20;3696164;-54
2023/12/30 01:28:59;;;;;;;;;110.00;91.00;;;;;0.70;100.00;99627.03;6277677;20;3686690;-52
2023/12/30 01:31:29;;;;;;;;;119.00;96.67;;;;;0.39;100.00;99618.00;6278901;20;3683586;-54
2023/12/30 01:33:59;;;;;;;;;106.00;92.00;;;;;1.07;100.00;99624.41;6276050;20;3670032;-54
2023/12/30 01:36:29;;;;;;;;;115.00;93.33;;;;;0.68;100.00;99620.91;6278589;20;3695051;-54
2023/12/30 01:38:58;;;;;;;;;115.33;94.33;;;;;1.10;100.00;99617.25;6275980;20;3682524;-54
2023/12/30 01:41:31;;;;;;;;;108.67;86.67;;;;;0.54;100.00;99614.16;6278778;20;3697201;-54
2023/12/30 01:44:01;;;;;;;;;101.67;81.00;;;;;0.62;100.00;99622.78;6277325;20;3673169;-51
2023/12/30 01:46:32;;;;;;;;;113.67;95.00;;;;;0.24;100.00;99620.09;6315057;20;3692980;-53
2023/12/30 01:49:02;;;;;;;;;109.67;84.33;;;;;0.16;100.00;99613.22;6279490;20;3697144;-49
2023/12/30 01:51:33;;;;;;;;;138.25;112.75;;;;;0.48;100.00;99616.97;6278393;20;4492926;-53
2023/12/30 01:54:05;;;;;;;;;106.33;76.33;;;;;1.12;100.00;99622.53;6280532;20;3669376;-53
2023/12/30 01:56:35;;;;;;;;;100.33;72.67;;;;;0.64;100.00;99622.78;6280008;20;3676335;-53
2023/12/30 01:59:05;;;;;;;;;103.67;80.33;;;;;0.70;100.00;99621.75;6309029;20;3687773;-54
2023/12/30 02:01:35;;;;;;;;;100.67;78.00;;;;;0.63;100.00;99619.28;6280074;20;3674312;-49
2023/12/30 02:04:05;;;;;;;;;103.00;76.67;;;;;0.71;100.00;99626.13;6311464;20;3675314;-52
2023/12/30 02:06:35;;;;;;;;;101.67;73.33;;;;;0.46;100.00;99616.13;6284329;20;3688791;-51
2023/12/30 02:09:05;;;;;;;;;101.00;74.67;;;;;0.65;100.00;99617.44;6281551;20;3682559;-50
2023/12/30 02:11:35;;;;;;;;;101.67;74.67;;;;;0.97;100.00;99620.25;6282504;20;3674230;-54
2023/12/30 02:14:13;;;;;;;;;103.67;78.33;;;;;0.49;100.00;99612.53;6280153;20;3685789;-50
2023/12/30 02:16:43;;;;;;;;;101.00;73.33;;;;;1.08;100.00;99605.88;6276314;20;3669102;-50
2023/12/30 02:19:13;;;;;;;;;109.00;82.67;;;;;0.91;100.00;99615.97;6280039;20;3695080;-49
2023/12/30 02:21:42;;;;;;;;;102.33;81.33;;;;;0.69;100.00;99598.91;6282207;20;3684652;-51
2023/12/30 02:24:12;;;;;;;;;98.67;71.67;;;;;1.09;100.00;99602.31;6282338;20;3650331;-50
2023/12/30 02:26:42;;;;;;;;;107.33;77.33;;;;;0.67;100.00;99605.97;6314377;20;3688781;-52
2023/12/30 02:29:11;;;;;;;;;100.00;74.33;;;;;0.46;100.00;99597.63;6282376;20;3663814;-48
2023/12/30 02:31:47;;;;;;;;;100.00;73.33;;;;;0.26;100.00;99600.69;6279867;20;3670081;-51
2023/12/30 02:34:19;;;;;;;;;105.00;78.67;;;;;0.31;100.00;99600.59;6313118;20;3682600;-51
2023/12/30 02:36:48;;;;;;;;;107.33;85.33;;;;;0.32;100.00;99599.72;6277409;20;3695055;-49
2023/12/30 02:39:18;;;;;;;;;106.67;82.33;;;;;0.50;100.00;99606.34;6281812;20;3688794;-51
2023/12/30 02:41:48;;;;;;;;;102.67;74.67;;;;;0.67;100.00;99605.97;6282106;20;3685780;-52
2023/12/30 02:44:18;;;;;;;;;112.00;78.33;;;;;-0.07;100.00;99607.53;6282099;20;3677427;-51
2023/12/30 02:46:48;;;;;;;;;107.33;83.33;;;;;-0.15;100.00;99612.97;6277715;20;3683632;-53
2023/12/30 02:49:20;;;;;;;;;97.00;72.33;;;;;0.12;100.00;99606.25;6282114;20;3661789;-52
2023/12/30 02:51:50;;;;;;;;;109.67;78.33;;;;;-0.40;100.00;99599.34;6314400;20;3695068;-53
2023/12/30 02:54:20;;;;;;;;;102.00;74.00;;;;;0.22;100.00;99607.81;6279967;20;3674247;-53
2023/12/30 02:56:49;;;;;;;;;102.33;79.00;;;;;0.27;100.00;99612.13;6278914;20;3672120;-53
2023/12/30 02:59:19;;;;;;;;;97.00;73.00;;;;;-0.26;100.00;99607.91;6277550;20;3645160;-55
2023/12/30 03:01:49;;;;;;;;;101.00;77.33;;;;;0.16;100.00;99605.31;6312224;20;3652326;-51
2023/12/30 03:04:18;;;;;;;;;105.33;79.33;;;;;-0.03;100.00;99606.56;6310828;20;3674232;-52
2023/12/30 03:06:48;;;;;;;;;101.33;74.33;;;;;0.28;100.00;99608.59;6279717;20;3673161;-51
2023/12/30 03:09:18;;;;;;;;;101.00;75.67;;;;;-0.04;100.00;99607.47;6281165;20;3668494;-54
2023/12/30 03:11:48;;;;;;;;;98.67;70.33;;;;;0.45;100.00;99611.75;6279142;20;3666947;-50
2023/12/30 03:14:18;;;;;;;;;101.33;76.33;;;;;-0.18;100.00;99606.88;6280090;20;3663904;-53
2023/12/30 03:16:48;;;;;;;;;97.67;72.00;;;;;0.12;100.00;99608.03;6309713;20;3648230;-50
2023/12/30 03:19:17;;;;;;;;;93.67;71.67;;;;;0.35;100.00;99610.19;6309853;20;3645067;-50
2023/12/30 03:21:47;;;;;;;;;97.00;71.33;;;;;-0.20;100.00;99600.75;6311603;20;3652794;-52
2023/12/30 03:24:17;;;;;;;;;98.00;72.33;;;;;0.25;100.00;99603.38;6312045;20;3659657;-54
2023/12/30 03:26:46;;;;;;;;;102.33;74.00;;;;;-0.18;100.00;99604.25;6311011;20;3677354;-50
2023/12/30 03:29:16;;;;;;;;;98.67;72.67;;;;;-0.02;100.00;99601.25;6280796;20;3648260;-54
2023/12/30 03:31:46;;;;;;;;;101.00;75.33;;;;;0.53;100.00;99615.09;6309605;20;3670516;-52
2023/12/30 03:34:16;;;;;;;;;100.00;73.67;;;;;0.03;100.00;99609.09;6279533;20;3663938;-51
2023/12/30 03:36:46;;;;;;;;;103.33;76.67;;;;;0.40;100.00;99608.34;6313685;20;3668129;-53
2023/12/30 03:39:15;;;;;;;;;101.00;74.00;;;;;-0.07;100.00;99602.25;6279399;20;3674240;-53
2023/12/30 03:41:45;;;;;;;;;97.33;71.67;;;;;-0.11;100.00;99600.56;6309684;20;3667442;-54
2023/12/30 03:44:15;;;;;;;;;104.00;75.33;;;;;0.36;100.00;99596.09;6311176;20;3679433;-53
2023/12/30 03:46:45;;;;;;;;;103.00;82.33;;;;;0.62;100.00;99601.66;6309354;20;3676330;-54
2023/12/30 03:49:15;;;;;;;;;105.00;78.33;;;;;0.21;100.00;99600.81;6311713;20;3678856;-55
2023/12/30 03:51:45;;;;;;;;;101.67;77.67;;;;;-0.19;100.00;99599.84;6278847;20;3686783;-54
2023/12/30 03:54:15;;;;;;;;;104.33;81.67;;;;;0.27;100.00;99596.31;6277350;20;3668142;-55
2023/12/30 03:56:47;;;;;;;;;124.33;88.00;;;;;0.12;100.00;99598.34;6273659;20;3696140;-54
2023/12/30 03:59:17;;;;;;;;;112.67;88.67;;;;;-0.52;100.00;99594.31;6278283;20;3695108;-55
2023/12/30 04:01:49;;;;;;;;;108.00;85.00;;;;;0.11;100.00;99601.03;6276881;20;3687891;-54
2023/12/30 04:04:19;;;;;;;;;111.00;84.67;;;;;0.33;100.00;99602.31;6277790;20;3692942;-51
2023/12/30 04:06:49;;;;;;;;;134.00;101.33;;;;;-0.07;100.00;99594.34;6279306;20;3716915;-55
2023/12/30 04:09:18;;;;;;;;;127.33;94.33;;;;;-0.56;100.00;99590.84;6280470;20;3692080;-54
2023/12/30 04:11:49;;;;;;;;;134.50;107.50;;;;;0.28;100.00;99595.38;6277840;20;3710692;-55
2023/12/30 04:14:19;;;;;;;;;136.33;105.67;;;;;-0.31;100.00;99598.34;6311909;20;3711699;-55
2023/12/30 04:16:49;;;;;;;;;157.25;117.25;;;;;-0.12;100.00;99597.06;6278516;20;4483527;-55
2023/12/30 04:19:21;;;;;;;;;152.00;118.75;;;;;-0.60;100.00;99590.97;6311684;20;3715898;-55
2023/12/30 04:21:51;;;;;;;;;148.00;111.00;;;;;-0.17;100.00;99595.41;6277551;20;3715899;-54
2023/12/30 04:24:21;;;;;;;;;131.00;107.00;;;;;-0.70;100.00;99598.16;6276183;20;3702319;-53
2023/12/30 04:26:52;;;;;;;;;135.00;108.50;;;;;-0.60;100.00;99591.81;6276318;20;3715985;-54
2023/12/30 04:29:22;;;;;;;;;112.67;93.00;;;;;-0.44;100.00;99605.59;6279001;20;3694116;-55
2023/12/30 04:31:52;;;;;;;;;129.00;100.00;;;;;-0.49;100.00;99594.25;6276829;20;3698161;-55
2023/12/30 04:34:22;;;;;;;;;116.00;91.50;;;;;0.12;100.00;99614.19;6274746;20;3642961;-50
2023/12/30 04:36:53;;;;;;;;;132.33;100.33;;;;;-0.58;100.00;99604.97;6275230;20;3712091;-53
2023/12/30 04:39:22;;;;;;;;;129.00;105.00;;;;;-0.17;100.00;99609.47;6278125;20;3692949;-54
2023/12/30 04:41:53;;;;;;;;;134.50;110.00;;;;;0.28;100.00;99616.50;6279815;20;3712768;-54
2023/12/30 04:44:23;;;;;;;;;140.00;111.67;;;;;0.30;100.00;99614.72;6273632;20;3705472;-55
2023/12/30 04:46:53;;;;;;;;;151.50;114.75;;;;;-0.43;100.00;99606.47;6278618;20;4489816;-56
2023/12/30 04:49:23;;;;;;;;;145.00;113.33;;;;;-0.28;100.00;99606.19;6275192;20;3711717;-52
2023/12/30 04:51:53;;;;;;;;;152.50;115.00;;;;;-0.04;100.00;99602.19;6278018;20;4486771;-49
2023/12/30 04:54:30;;;;;;;;;142.00;114.00;;;;;-0.77;100.00;99597.38;6274415;20;3718056;-53
2023/12/30 04:57:01;;;;;;;;;147.00;114.75;;;;;-0.40;100.00;99602.00;6305125;20;4486715;-55
2023/12/30 04:59:30;;;;;;;;;123.00;95.67;;;;;-0.63;100.00;99604.16;6273435;20;3699220;-50
2023/12/30 05:02:00;;;;;;;;;114.00;82.00;;;;;-1.15;100.00;99601.50;6276501;20;3695065;-53
2023/12/30 05:04:30;;;;;;;;;116.33;89.00;;;;;-0.52;100.00;99594.31;6274293;20;3703886;-55
2023/12/30 05:07:00;;;;;;;;;110.00;78.33;;;;;-0.06;100.00;99609.25;6274622;20;3693002;-50
2023/12/30 05:09:30;;;;;;;;;110.33;86.67;;;;;-0.56;100.00;99611.06;6276508;20;3682499;-52
2023/12/30 05:11:59;;;;;;;;;106.67;80.67;;;;;-0.51;100.00;99627.69;6275160;20;3685680;-50
2023/12/30 05:14:29;;;;;;;;;105.67;80.00;;;;;-0.89;100.00;99616.03;6272960;20;3679523;-55
2023/12/30 05:16:59;;;;;;;;;110.00;75.67;;;;;-0.24;100.00;99615.75;6277293;20;3683595;-50
2023/12/30 05:19:28;;;;;;;;;108.67;80.33;;;;;-1.13;100.00;99602.34;6276587;20;3678436;-52
2023/12/30 05:21:58;;;;;;;;;107.00;78.00;;;;;-0.40;100.00;99609.91;6313703;20;3679450;-52
2023/12/30 05:24:28;;;;;;;;;104.00;77.00;;;;;-0.73;100.00;99606.97;6282278;20;3675302;-50
2023/12/30 05:26:57;;;;;;;;;103.00;77.00;;;;;-1.04;100.00;99601.34;6281471;20;3675297;-52
2023/12/30 05:29:28;;;;;;;;;94.00;72.00;;;;;-0.18;100.00;99620.06;6315651;20;2881600;-55
2023/12/30 05:31:57;;;;;;;;;101.33;70.33;;;;;0.01;100.00;99625.88;6315668;20;3661803;-53
2023/12/30 05:34:27;;;;;;;;;102.00;78.33;;;;;-0.71;100.00;99621.00;6314267;20;3661920;-52
2023/12/30 05:36:57;;;;;;;;;107.67;81.67;;;;;-0.17;100.00;99625.31;6312454;20;3677806;-51
2023/12/30 05:39:27;;;;;;;;;103.00;75.00;;;;;-0.97;100.00;99615.31;6276111;20;3670093;-50
2023/12/30 05:41:56;;;;;;;;;110.33;76.00;;;;;-0.23;100.00;99630.72;6277038;20;3676356;-52
2023/12/30 05:44:26;;;;;;;;;97.00;72.00;;;;;-0.67;100.00;99627.09;6279833;20;3656739;-52
2023/12/30 05:46:56;;;;;;;;;100.33;71.33;;;;;-0.23;100.00;99631.56;6315856;20;3664856;-52
2023/12/30 05:49:25;;;;;;;;;93.00;72.33;;;;;-0.49;100.00;99620.63;6277734;20;2889900;-51
2023/12/30 05:51:55;;;;;;;;;106.67;77.67;;;;;-0.50;100.00;99632.06;6313373;20;3675252;-54
2023/12/30 05:54:26;;;;;;;;;104.00;81.33;;;;;0.16;100.00;99641.41;6275930;20;3674249;-53
2023/12/30 05:56:55;;;;;;;;;111.67;86.00;;;;;-0.08;100.00;99626.88;6281981;20;3701312;-52
2023/12/30 05:59:25;;;;;;;;;109.33;88.33;;;;;0.46;100.00;99639.88;6281273;20;3698249;-51
2023/12/30 06:01:58;;;;;;;;;112.00;94.00;;;;;-0.15;100.00;99642.00;6279781;20;3685722;-52
2023/12/30 06:04:29;;;;;;;;;115.00;92.33;;;;;-0.43;100.00;99636.34;6281087;20;3693080;-50
2023/12/30 06:06:59;;;;;;;;;104.33;81.00;;;;;0.12;100.00;99640.56;6282588;20;3678409;-51
2023/12/30 06:09:28;;;;;;;;;112.33;83.00;;;;;0.40;100.00;99645.31;6281388;20;3693415;-51
2023/12/30 06:11:58;;;;;;;;;108.00;85.67;;;;;1.10;100.00;99649.00;6281083;20;3697152;-51
2023/12/30 06:14:28;;;;;;;;;101.67;81.33;;;;;0.88;100.00;99643.34;6281928;20;3665996;-54
2023/12/30 06:16:58;;;;;;;;;105.33;87.33;;;;;0.78;100.00;99647.09;6279978;20;3684709;-52
2023/12/30 06:19:27;;;;;;;;;106.67;83.00;;;;;0.30;100.00;99639.34;6282022;20;3675333;-55
2023/12/30 06:21:57;;;;;;;;;106.00;83.67;;;;;0.49;100.00;99644.22;6280257;20;3688817;-54
2023/12/30 06:24:27;;;;;;;;;90.33;69.00;;;;;0.39;100.00;99656.75;6281923;20;3653518;-55
2023/12/30 06:26:57;;;;;;;;;102.00;73.33;;;;;0.90;100.00;99645.97;6314054;20;3681528;-52
2023/12/30 06:29:27;;;;;;;;;105.33;79.67;;;;;0.67;100.00;99654.41;6282673;20;3695111;-53
2023/12/30 06:31:59;;;;;;;;;98.33;77.67;;;;;0.60;100.00;99658.94;6279380;20;3655496;-53
2023/12/30 06:34:31;;;;;;;;;104.33;77.00;;;;;1.04;100.00;99665.00;6309175;20;3686741;-49
2023/12/30 06:37:01;;;;;;;;;100.67;77.33;;;;;1.61;100.00;99665.44;6278715;20;3674214;-53
2023/12/30 06:39:30;;;;;;;;;99.67;78.33;;;;;2.40;100.00;99679.16;6312745;20;3663787;-52
2023/12/30 06:42:00;;;;;;;;;102.00;84.67;;;;;1.92;100.00;99671.66;6279873;20;3679476;-52
2023/12/30 06:44:30;;;;;;;;;105.33;86.33;;;;;2.05;100.00;99673.97;6280060;20;3694007;-55
2023/12/30 06:47:00;;;;;;;;;101.67;80.33;;;;;2.18;100.00;99688.59;6279611;20;3676378;-50
2023/12/30 06:49:30;;;;;;;;;101.67;77.33;;;;;2.28;100.00;99689.22;6280059;20;3697173;-53
2023/12/30 06:52:00;;;;;;;;;115.33;93.00;;;;;2.60;100.00;99689.16;6283065;20;3691370;-54
2023/12/30 06:54:29;;;;;;;;;120.67;102.00;;;;;2.97;100.00;99695.16;6278984;20;3717056;-53
2023/12/30 06:56:59;;;;;;;;;94.00;79.33;;;;;2.94;100.00;99701.44;6280224;20;3674207;-53
2023/12/30 06:59:29;;;;;;;;;101.00;80.67;;;;;3.10;100.00;99707.13;6312905;20;3680509;-53
2023/12/30 07:01:59;;;;;;;;;102.67;86.67;;;;;3.28;100.00;99701.25;6278171;20;3690923;-54
2023/12/30 07:04:28;;;;;;;;;95.67;70.00;;;;;3.44;100.00;99722.88;6281273;20;3661759;-50
2023/12/30 07:06:58;;;;;;;;;96.67;80.33;;;;;3.42;100.00;99723.84;6278998;20;3660782;-52
2023/12/30 07:09:29;;;;;;;;;143.00;121.00;;;;;3.42;100.00;99723.84;6313642;20;3704546;-51
2023/12/30 07:11:58;;;;;;;;;101.00;80.33;;;;;3.43;100.00;99720.28;6279256;20;3681605;-53
2023/12/30 07:14:32;;;;;;;;;99.00;80.33;;;;;3.59;100.00;99716.22;6280145;20;3679553;-52
2023/12/30 07:17:02;;;;;;;;;102.67;84.00;;;;;3.59;100.00;99715.34;6280827;20;3689857;-51
2023/12/30 07:19:33;;;;;;;;;103.75;82.75;;;;;3.30;100.00;99715.34;6280744;20;3702428;-55
2023/12/30 07:22:03;;;;;;;;;99.00;84.67;;;;;3.68;100.00;99718.53;6278319;20;3676367;-55
2023/12/30 07:24:32;;;;;;;;;102.00;88.33;;;;;3.64;100.00;99716.94;6279212;20;3699200;-54
2023/12/30 07:27:03;;;;;;;;;102.00;89.67;;;;;3.67;100.00;99724.78;6280474;20;3665999;-52
2023/12/30 07:29:33;;;;;;;;;98.67;85.67;;;;;3.36;100.00;99726.69;6277445;20;3657584;-52
2023/12/30 07:32:03;;;;;;;;;98.67;80.67;;;;;3.35;100.00;99730.28;6278404;20;3676280;-52
2023/12/30 07:34:33;;;;;;;;;98.33;78.67;;;;;3.20;100.00;99736.91;6276315;20;3682173;-51
2023/12/30 07:37:04;;;;;;;;;93.33;73.67;;;;;3.60;100.00;99743.63;6280172;20;3663781;-55
2023/12/30 07:39:34;;;;;;;;;97.67;76.00;;;;;3.57;100.00;99754.34;6277807;20;3681506;-50
2023/12/30 07:42:04;;;;;;;;;95.67;77.33;;;;;3.52;100.00;99755.34;6279238;20;3672148;-55
2023/12/30 07:44:37;;;;;;;;;90.67;68.33;;;;;3.87;100.00;99758.66;6276353;20;3649231;-49
2023/12/30 07:47:07;;;;;;;;;86.00;65.33;;;;;4.02;100.00;99759.91;6312357;20;3640911;-52
2023/12/30 07:49:37;;;;;;;;;108.00;90.67;;;;;4.16;100.00;99764.75;6309562;20;3689833;-52
2023/12/30 07:52:07;;;;;;;;;162.25;134.00;;;;;4.41;100.00;99764.78;6279355;20;4504426;-52
2023/12/30 07:54:37;;;;;;;;;174.75;150.50;;;;;4.40;100.00;99763.94;6278861;20;4469181;-53
2023/12/30 07:57:05;;;;;;;;;168.00;129.00;;;;;4.49;100.00;99764.53;6300786;20;1962898;-56
2023/12/30 07:59:35;;;;;;;;;91.33;71.00;;;;;4.67;100.00;99771.00;6278375;20;3664852;-52
2023/12/30 08:02:04;;;;;;;;;96.00;79.33;;;;;4.68;100.00;99772.72;6274776;20;3677338;-57
2023/12/30 08:04:34;;;;;;;;;84.67;65.33;;;;;4.87;100.00;99776.44;6279833;20;2897300;-55
2023/12/30 08:07:04;;;;;;;;;115.00;94.00;;;;;4.90;100.00;99773.69;6312425;20;3686714;-55
2023/12/30 08:09:33;;;;;;;;;92.00;77.33;;;;;5.29;100.00;99775.72;6279860;20;3666932;-57
2023/12/30 08:12:07;;;;;;;;;143.00;119.25;;;;;5.28;100.00;99771.34;6280134;20;4487804;-56
2023/12/30 08:14:38;;;;;;;;;88.33;73.33;;;;;5.26;100.00;99784.69;6279087;20;3658614;-57
2023/12/30 08:17:07;;;;;;;;;86.00;69.67;;;;;5.30;100.00;99777.50;6310410;20;3662870;-55
2023/12/30 08:19:37;;;;;;;;;83.67;64.33;;;;;5.77;100.00;99781.88;6279053;20;3652470;-57
2023/12/30 08:22:07;;;;;;;;;98.33;86.33;;;;;5.42;100.00;99763.69;6309852;20;3680489;-55
2023/12/30 08:24:37;;;;;;;;;78.67;64.33;;;;;5.99;100.00;99771.22;6277582;20;2876403;-56
2023/12/30 08:27:07;;;;;;;;;92.00;75.33;;;;;5.99;100.00;99768.56;6309131;20;3671135;-55
2023/12/30 08:29:37;;;;;;;;;91.00;78.00;;;;;6.12;100.00;99783.97;6275140;20;3657568;-56
2023/12/30 08:32:07;;;;;;;;;92.00;79.00;;;;;6.19;100.00;99779.28;6263669;20;2823318;-58
2023/12/30 08:34:36;;;;;;;;;87.33;72.33;;;;;6.20;100.00;99775.66;6309200;20;3646202;-55
2023/12/30 08:37:09;;;;;;;;;89.33;72.00;;;;;6.75;100.00;99789.28;6278315;20;3686742;-58
2023/12/30 08:39:39;;;;;;;;;83.33;68.33;;;;;6.77;100.00;99790.09;6278005;20;3641031;-55
2023/12/30 08:42:09;;;;;;;;;73.33;56.33;;;;;6.80;100.00;99792.59;6276015;20;3633608;-56
2023/12/30 08:44:45;;;;;;;;;93.00;75.00;;;;;6.97;100.00;99788.31;6307917;20;3688819;-55
2023/12/30 08:47:15;;;;;;;;;84.00;65.67;;;;;6.98;100.00;99790.94;6275214;20;3654464;-56
2023/12/30 08:49:46;;;;;;;;;118.00;98.33;;;;;7.37;100.00;99792.72;6306741;20;3696115;-55
2023/12/30 08:52:16;;;;;;;;;97.67;84.00;;;;;7.53;100.00;99798.19;6276897;20;3666019;-54
2023/12/30 08:54:46;;;;;;;;;81.67;66.00;;;;;7.52;100.00;99800.94;6275175;20;3636731;-51
2023/12/30 08:57:15;;;;;;;;;82.00;65.00;;;;;7.42;100.00;99787.13;6315234;20;3650243;-50
2023/12/30 08:59:45;;;;;;;;;80.00;62.33;;;;;7.74;100.00;99807.00;6279496;20;3639830;-51
2023/12/30 09:02:15;;;;;;;;;80.67;62.00;;;;;7.84;100.00;99808.25;6317659;20;3638776;-50
2023/12/30 09:04:44;;;;;;;;;69.00;53.00;;;;;7.82;100.00;99798.56;6315182;20;3636720;-52
2023/12/30 09:07:14;;;;;;;;;69.33;53.67;;;;;8.02;100.00;99792.28;6316939;20;3631529;-53
2023/12/30 09:09:44;;;;;;;;;67.33;53.67;;;;;7.93;100.00;99812.31;6312321;20;3616919;-54
2023/12/30 09:12:13;;;;;;;;;48.33;36.33;;;;;8.29;100.00;99804.28;6316966;20;2864890;-54
2023/12/30 09:14:42;;;;;;;;;63.00;50.00;;;;;8.61;100.00;99808.94;6315648;20;2759669;-56
2023/12/30 09:17:12;;;;;;;;;60.33;47.00;;;;;8.88;100.00;99798.63;6281688;20;3612769;-54
2023/12/30 09:19:41;;;;;;;;;67.67;52.67;;;;;8.71;100.00;99799.50;6313656;20;3603404;-54
2023/12/30 09:22:12;;;;;;;;;67.00;51.00;;;;;8.49;100.00;99811.31;6317461;20;3649455;-55
2023/12/30 09:24:41;;;;;;;;;57.67;47.33;;;;;8.41;100.00;99800.13;6310622;20;2870268;-55
2023/12/30 09:27:10;;;;;;;;;59.50;49.00;;;;;8.52;100.00;99800.44;6314930;20;2857591;-56
2023/12/30 09:29:40;;;;;;;;;58.00;47.33;;;;;8.52;100.00;99799.59;6282597;20;3625308;-55
2023/12/30 09:32:09;;;;;;;;;62.00;50.67;;;;;8.55;100.00;99797.59;6316294;20;3625286;-56
2023/12/30 09:34:39;;;;;;;;;63.00;49.00;;;;;8.26;100.00;99792.84;6313934;20;3612899;-56
2023/12/30 09:37:14;;;;;;;;;61.00;49.33;;;;;8.31;100.00;99798.84;6313630;20;3596098;-55
2023/12/30 09:39:44;;;;;;;;;68.67;50.00;;;;;8.04;100.00;99793.94;6316060;20;3630484;-57
2023/12/30 09:42:14;;;;;;;;;73.33;56.00;;;;;7.96;100.00;99790.78;6315147;20;2886914;-57
2023/12/30 09:44:44;;;;;;;;;64.33;49.67;;;;;8.03;100.00;99781.50;6316178;20;3614851;-56
2023/12/30 09:47:14;;;;;;;;;68.00;53.00;;;;;8.12;100.00;99775.69;6314279;20;3628410;-58
2023/12/30 09:49:45;;;;;;;;;65.33;52.67;;;;;7.84;100.00;99778.00;6309225;20;3620046;-57
2023/12/30 09:52:15;;;;;;;;;85.00;73.00;;;;;8.05;100.00;99779.59;6308570;20;3666917;-57
2023/12/30 09:54:43;;;;;;;;;117.00;107.00;;;;;7.70;100.00;99773.31;6273988;20;1943045;-57
2023/12/30 09:57:18;;;;;;;;;109.00;94.25;;;;;7.60;100.00;99772.91;6281159;20;3695443;-58
2023/12/30 09:59:49;;;;;;;;;79.33;67.33;;;;;7.88;100.00;99771.56;6276496;20;2883684;-58
2023/12/30 10:02:18;;;;;;;;;97.00;86.33;;;;;7.95;100.00;99767.63;6311630;20;3669019;-54
2023/12/30 10:04:49;;;;;;;;;81.33;68.00;;;;;8.15;100.00;99769.31;6282628;20;3647156;-58
2023/12/30 10:07:19;;;;;;;;;74.33;59.00;;;;;8.11;100.00;99773.97;6314451;20;2861745;-56
2023/12/30 10:09:50;;;;;;;;;82.00;70.00;;;;;8.27;100.00;99775.88;6312894;20;3642040;-57
2023/12/30 10:12:20;;;;;;;;;73.00;58.00;;;;;8.09;100.00;99781.19;6281574;20;3620187;-58
2023/12/30 10:14:49;;;;;;;;;74.00;57.00;;;;;8.23;100.00;99776.97;6311032;20;3629510;-58
2023/12/30 10:17:20;;;;;;;;;79.00;62.33;;;;;8.38;100.00;99778.88;6311802;20;3643068;-58
2023/12/30 10:19:50;;;;;;;;;81.33;60.00;;;;;8.68;100.00;99779.09;6311172;20;3647262;-58
2023/12/30 10:22:19;;;;;;;;;71.00;57.00;;;;;8.73;100.00;99781.56;6312715;20;2877489;-55
2023/12/30 10:24:49;;;;;;;;;64.50;51.50;;;;;8.67;100.00;99780.06;6308287;20;3502394;-57
2023/12/30 10:27:18;;;;;;;;;65.33;52.00;;;;;8.90;100.00;99777.97;6314353;20;3625338;-56
2023/12/30 10:29:54;;;;;;;;;65.67;51.00;;;;;8.57;100.00;99777.00;6313418;20;3629414;-58
2023/12/30 10:32:29;;;;;;;;;67.00;52.33;;;;;9.14;100.00;99778.50;6315306;20;3631571;-52
2023/12/30 10:34:59;;;;;;;;;63.00;49.67;;;;;8.97;100.00;99774.88;6312355;20;3611739;-52
2023/12/30 10:37:29;;;;;;;;;53.50;45.50;;;;;9.06;100.00;99770.88;6314771;20;2858691;-48
2023/12/30 10:40:01;;;;;;;;;65.00;49.00;;;;;9.20;100.00;99765.63;6280700;20;3648330;-52
2023/12/30 10:42:30;;;;;;;;;60.67;50.00;;;;;9.52;100.00;99783.56;6313410;20;3621146;-53
2023/12/30 10:44:59;;;;;;;;;64.00;51.33;;;;;9.99;99.19;99783.53;6277318;20;3614884;-53
2023/12/30 10:47:40;;;;;;;;;62.33;50.00;;;;;9.98;100.00;99772.88;6311777;20;3621128;-51
2023/12/30 10:50:10;;;;;;;;;60.33;50.00;;;;;9.83;98.13;99770.16;6316815;20;3615072;-53
2023/12/30 10:53:04;;;;;;;;;64.33;50.33;;;;;9.59;100.00;99780.44;6280841;20;3622208;-52
2023/12/30 10:55:36;;;;;;;;;64.33;51.67;;;;;9.67;100.00;99770.16;6308365;20;3617964;-54
2023/12/30 10:58:22;;;;;;;;;74.33;64.33;;;;;9.83;98.81;99769.28;6310022;20;3623183;-54
2023/12/30 11:00:57;;;;;;;;;62.00;50.67;;;;;10.19;95.31;99765.41;6309050;20;2866721;-52
2023/12/30 11:03:31;;;;;;;;;66.67;54.00;;;;;10.45;93.38;99761.22;6310334;20;3624285;-52
2023/12/30 11:06:29;;;;;;;;;63.67;51.33;;;;;10.63;92.74;99749.38;6313278;20;3618056;-50
2023/12/30 11:09:13;;;;;;;;;59.00;47.00;;;;;11.05;89.47;99750.38;6276258;20;3618031;-51